Time;durP1;ratioP1;P1;durP2;ratioP2;P2;SDS_P1;SDS_P2;PMS_P1;PMS_P2;Temp;Humidity;BMP_temperature;BMP_pressure;BME280_temperature;BME280_humidity;BME280_pressure;Samples;Min_cycle;Max_cycle;Signal;HPM_P1;HPM_P2
2021/08/30 00:01:47;;;;;;;17.23;11.20;;;;;;;16.68;100.00;100115.25;714002;1200;114895;-79
2021/08/30 00:16:49;;;;;;;17.70;11.35;;;;;;;16.69;100.00;100110.76;714249;1199;114863;-80
2021/08/30 00:31:56;;;;;;;18.23;11.40;;;;;;;16.59;100.00;100103.08;714335;1199;115065;-79
2021/08/30 00:46:58;;;;;;;32.80;18.40;;;;;;;16.55;100.00;100104.41;714071;1199;114786;-79
2021/08/30 01:02:00;;;;;;;34.70;18.33;;;;;;;16.50;100.00;100101.50;714076;1202;114573;-81
2021/08/30 01:17:05;;;;;;;19.45;12.05;;;;;;;16.44;100.00;100114.45;714417;1177;114302;-78
2021/08/30 01:32:30;;;;;;;18.73;12.47;;;;;;;16.49;100.00;100115.73;714195;1195;114184;-80
2021/08/30 01:47:33;;;;;;;19.28;11.28;;;;;;;16.39;100.00;100115.95;714055;1200;115141;-79
2021/08/30 02:02:37;;;;;;;26.63;13.53;;;;;;;16.43;100.00;100117.25;714119;1199;114904;-80
2021/08/30 02:17:45;;;;;;;18.05;10.40;;;;;;;16.42;100.00;100111.14;714273;1199;115900;-81
2021/08/30 02:32:52;;;;;;;17.38;11.18;;;;;;;16.41;100.00;100106.03;714231;1199;115943;-81
2021/08/30 02:47:57;;;;;;;20.07;11.33;;;;;;;16.38;100.00;100104.56;714136;1202;114793;-81
2021/08/30 03:03:00;;;;;;;19.58;11.18;;;;;;;16.39;100.00;100111.51;714096;1177;114312;-80
2021/08/30 03:18:08;;;;;;;17.35;10.85;;;;;;;16.26;100.00;100100.70;714062;1199;114718;-79
2021/08/30 03:33:11;;;;;;;15.20;10.40;;;;;;;16.33;100.00;100095.52;714271;1202;115070;-79
2021/08/30 03:48:14;;;;;;;13.93;9.57;;;;;;;16.30;100.00;100100.15;714196;1199;114779;-78
2021/08/30 04:03:19;;;;;;;22.25;13.73;;;;;;;16.08;100.00;100111.56;714794;1199;115568;-79
2021/08/30 04:18:21;;;;;;;22.85;12.90;;;;;;;16.11;100.00;100104.10;714725;1200;115033;-79
2021/08/30 04:33:23;;;;;;;18.18;11.53;;;;;;;16.17;100.00;100109.70;714358;1200;114067;-82
2021/08/30 04:48:25;;;;;;;19.95;11.78;;;;;;;16.23;100.00;100114.27;714224;1199;114993;-80
2021/08/30 05:03:27;;;;;;;27.30;18.25;;;;;;;16.35;100.00;100109.38;717781;1164;115608;-79
2021/08/30 05:18:30;;;;;;;22.28;13.28;;;;;;;16.52;100.00;100097.65;715905;1199;114352;-79
2021/08/30 05:33:32;;;;;;;23.73;15.30;;;;;;;16.68;100.00;100109.95;715849;1200;115887;-80
2021/08/30 05:48:39;;;;;;;17.60;11.80;;;;;;;16.91;100.00;100107.26;716052;1199;115724;-81
2021/08/30 06:03:42;;;;;;;16.28;9.80;;;;;;;17.10;100.00;100113.03;716448;1200;115000;-82
2021/08/30 06:18:44;;;;;;;14.65;9.58;;;;;;;17.33;100.00;100107.64;716020;1197;114194;-78
2021/08/30 06:33:46;;;;;;;11.47;8.27;;;;;;;17.77;100.00;100092.66;715809;1199;115106;-80
2021/08/30 06:48:48;;;;;;;13.70;9.15;;;;;;;17.98;100.00;100099.05;715921;1200;114236;-73
2021/08/30 07:03:51;;;;;;;16.70;9.60;;;;;;;17.95;100.00;100093.09;715798;1200;115522;-73
2021/08/30 07:18:53;;;;;;;17.08;9.70;;;;;;;17.96;100.00;100105.36;716059;1200;114395;-77
2021/08/30 07:33:55;;;;;;;16.23;10.23;;;;;;;18.33;100.00;100097.34;716035;1180;115948;-73
2021/08/30 07:48:57;;;;;;;16.65;9.70;;;;;;;18.60;100.00;100092.25;723138;1199;114608;-72
2021/08/30 08:04:01;;;;;;;11.58;6.93;;;;;;;19.16;100.00;100102.03;717478;1199;115894;-73
2021/08/30 08:19:04;;;;;;;13.10;6.90;;;;;;;19.77;100.00;100092.50;715837;1200;115142;-74
2021/08/30 08:34:09;;;;;;;5.80;4.20;;;;;;;20.03;100.00;100104.24;716048;1205;115711;-74
2021/08/30 08:49:11;;;;;;;7.53;3.93;;;;;;;20.18;100.00;100109.38;715889;1199;114044;-74
2021/08/30 09:04:14;;;;;;;7.53;3.53;;;;;;;20.40;100.00;100107.36;715809;1199;114920;-74
2021/08/30 09:19:18;;;;;;;5.78;3.10;;;;;;;20.18;100.00;100107.56;725623;1200;114008;-73
2021/08/30 09:34:20;;;;;;;31.40;13.37;;;;;;;20.42;100.00;100111.46;716259;1177;115267;-75
2021/08/30 09:49:27;;;;;;;4.83;3.60;;;;;;;20.46;100.00;100103.89;716137;1199;114351;-74
2021/08/30 10:04:30;;;;;;;6.83;4.55;;;;;;;20.83;100.00;100079.50;715894;1200;114607;-75
2021/08/30 10:19:35;;;;;;;4.53;3.23;;;;;;;21.24;100.00;100083.70;716485;1199;114774;-74
2021/08/30 10:34:39;;;;;;;6.50;4.63;;;;;;;21.34;100.00;100070.74;715920;1199;114572;-74
2021/08/30 10:49:46;;;;;;;3.70;2.90;;;;;;;21.45;100.00;100069.25;718358;1183;114682;-73
2021/08/30 11:04:52;;;;;;;6.37;3.40;;;;;;;21.39;100.00;100073.59;717218;1199;114678;-74
2021/08/30 11:19:56;;;;;;;13.70;8.15;;;;;;;20.86;100.00;100074.55;716269;1174;114551;-75
2021/08/30 11:34:59;;;;;;;28.47;17.03;;;;;;;20.84;100.00;100065.13;716793;1200;114972;-72
2021/08/30 11:50:05;;;;;;;7.80;5.65;;;;;;;20.90;100.00;100074.97;716065;1203;114318;-80
2021/08/30 12:05:11;;;;;;;5.95;3.85;;;;;;;20.51;100.00;100066.80;716148;1177;114140;-79
2021/08/30 12:20:16;;;;;;;6.98;4.70;;;;;;;20.50;100.00;100064.34;716293;1199;116179;-77
2021/08/30 12:35:30;;;;;;;6.75;4.88;;;;;;;20.29;100.00;100069.65;715977;1199;114072;-79
2021/08/30 12:50:33;;;;;;;10.30;5.18;;;;;;;20.03;100.00;100064.31;716638;1199;115630;-77
2021/08/30 13:05:39;;;;;;;6.80;4.67;;;;;;;19.51;100.00;100055.98;722996;1199;114872;-77
2021/08/30 13:20:43;;;;;;;6.55;4.68;;;;;;;19.63;100.00;100038.41;716578;1203;114564;-78
2021/08/30 13:35:45;;;;;;;10.50;5.78;;;;;;;20.00;100.00;100038.11;716039;1177;114241;-77
2021/08/30 13:50:48;;;;;;;6.30;4.78;;;;;;;19.59;100.00;100030.00;716014;1203;115538;-72
2021/08/30 14:05:51;;;;;;;8.00;5.50;;;;;;;19.52;100.00;100028.34;716286;1202;115712;-72
2021/08/30 14:20:54;;;;;;;8.03;5.63;;;;;;;19.60;100.00;100025.52;716546;1206;113992;-75
2021/08/30 14:35:57;;;;;;;6.98;5.08;;;;;;;19.56;100.00;100011.80;716195;1177;114000;-72
2021/08/30 14:50:59;;;;;;;6.40;4.75;;;;;;;19.74;100.00;99983.78;716118;1187;114841;-75
2021/08/30 15:06:02;;;;;;;10.80;7.05;;;;;;;19.78;100.00;99991.16;715758;1199;113772;-75
2021/08/30 15:21:05;;;;;;;13.83;6.95;;;;;;;20.09;100.00;99992.43;717603;1199;114744;-79
2021/08/30 15:36:07;;;;;;;9.68;6.60;;;;;;;19.77;100.00;99975.41;715985;1199;115167;-75
2021/08/30 15:51:11;;;;;;;11.10;6.60;;;;;;;19.62;100.00;99986.21;716404;1186;114553;-74
2021/08/30 16:06:13;;;;;;;10.70;7.47;;;;;;;19.33;100.00;99971.42;716450;1200;114940;-74
2021/08/30 16:21:16;;;;;;;19.30;12.55;;;;;;;19.09;100.00;99973.59;716038;1177;114174;-74
2021/08/30 16:36:23;;;;;;;29.98;12.43;;;;;;;18.83;100.00;99948.50;715985;1200;114198;-76
2021/08/30 16:51:26;;;;;;;14.27;9.37;;;;;;;18.68;100.00;99940.67;716297;1200;114181;-76
2021/08/30 17:06:28;;;;;;;13.05;9.18;;;;;;;18.46;100.00;99943.43;716051;1200;114454;-71
2021/08/30 17:21:34;;;;;;;19.25;11.10;;;;;;;18.41;100.00;99937.88;717374;1203;114232;-72
2021/08/30 17:36:36;;;;;;;15.00;10.68;;;;;;;18.28;100.00;99927.18;716184;1202;115389;-72
2021/08/30 17:51:40;;;;;;;18.38;11.30;;;;;;;18.00;100.00;99938.63;715987;1174;114237;-74
2021/08/30 18:06:43;;;;;;;23.13;13.97;;;;;;;17.78;100.00;99941.26;715592;1200;114435;-73
2021/08/30 18:21:46;;;;;;;24.88;14.10;;;;;;;17.68;100.00;99938.10;716202;1177;114569;-72
2021/08/30 18:36:49;;;;;;;20.03;12.58;;;;;;;17.45;100.00;99943.61;715939;1199;115079;-73
2021/08/30 18:51:51;;;;;;;13.30;8.75;;;;;;;17.06;100.00;99963.36;716250;1202;115079;-72
2021/08/30 19:06:54;;;;;;;12.00;7.30;;;;;;;16.76;100.00;99972.13;717050;1180;114106;-76
2021/08/30 19:21:56;;;;;;;18.38;10.75;;;;;;;16.70;100.00;99953.51;716397;1200;114401;-73
2021/08/30 19:36:59;;;;;;;19.23;10.60;;;;;;;16.77;100.00;99926.11;720592;1200;114715;-74
2021/08/30 19:52:01;;;;;;;14.55;9.00;;;;;;;16.95;100.00;99930.22;716599;1199;114743;-74
2021/08/30 20:07:03;;;;;;;9.98;6.20;;;;;;;16.98;100.00;99921.89;716055;1177;114037;-76
2021/08/30 20:22:06;;;;;;;13.05;7.50;;;;;;;16.91;100.00;99907.76;715844;1200;115373;-75
2021/08/30 20:37:08;;;;;;;13.10;7.68;;;;;;;16.85;100.00;99903.16;716485;1200;115524;-76
2021/08/30 20:52:11;;;;;;;12.55;8.48;;;;;;;16.89;100.00;99880.59;716278;1200;114948;-76
2021/08/30 21:07:13;;;;;;;10.30;6.83;;;;;;;16.83;100.00;99874.22;716187;1194;114608;-77
2021/08/30 21:22:16;;;;;;;7.80;6.45;;;;;;;16.80;100.00;99862.16;716343;1177;114148;-77
2021/08/30 21:37:18;;;;;;;7.35;5.33;;;;;;;16.80;100.00;99862.16;716058;1200;115078;-75
2021/08/30 21:52:20;;;;;;;6.57;5.00;;;;;;;16.80;100.00;99854.22;717806;1188;113717;-76
2021/08/30 22:07:23;;;;;;;8.85;5.80;;;;;;;16.79;100.00;99855.22;716253;1198;113681;-75
2021/08/30 22:22:25;;;;;;;7.95;5.75;;;;;;;16.74;100.00;99865.55;716135;1200;113846;-75
2021/08/30 22:37:27;;;;;;;8.40;5.58;;;;;;;16.80;100.00;99864.81;715841;1205;114400;-76
2021/08/30 22:52:29;;;;;;;7.20;5.25;;;;;;;16.74;100.00;99857.59;715617;1204;115504;-76
2021/08/30 23:07:31;;;;;;;10.68;6.98;;;;;;;16.76;100.00;99852.11;715574;1202;114859;-76
2021/08/30 23:22:33;;;;;;;6.88;5.23;;;;;;;16.78;100.00;99856.22;715679;1177;114843;-76
2021/08/30 23:37:35;;;;;;;11.00;6.88;;;;;;;16.74;100.00;99841.70;715881;1176;114256;-76
2021/08/30 23:52:38;;;;;;;8.33;5.98;;;;;;;16.76;100.00;99847.66;715677;1200;114064;-77
